Time;durP1;ratioP1;P1;durP2;ratioP2;P2;SDS_P1;SDS_P2;PMS_P1;PMS_P2;Temp;Humidity;BMP_temperature;BMP_pressure;BME280_temperature;BME280_humidity;BME280_pressure;Samples;Min_cycle;Max_cycle;Signal;HPM_P1;HPM_P2
2021/12/07 00:02:06;;;;;;;;;;;0.80;99.90;;;;;;8325116;28;19913;-66
2021/12/07 00:06:08;;;;;;;;;;;0.90;99.90;;;;;;8322217;28;19913;-65
2021/12/07 00:10:09;;;;;;;;;;;1.00;99.90;;;;;;8331266;28;19967;-65
2021/12/07 00:14:15;;;;;;;;;;;1.00;99.90;;;;;;8330408;28;19944;-66
2021/12/07 00:18:16;;;;;;;;;;;1.10;99.90;;;;;;8315140;28;19925;-67
2021/12/07 00:22:16;;;;;;;;;;;1.20;99.90;;;;;;8330227;28;19920;-66
2021/12/07 00:26:17;;;;;;;;;;;1.20;99.90;;;;;;8330837;28;20335;-66
2021/12/07 00:30:18;;;;;;;;;;;1.30;99.90;;;;;;8330476;28;19920;-66
2021/12/07 00:34:42;;;;;;;;;;;1.40;99.90;;;;;;8330842;28;19909;-66
2021/12/07 00:38:43;;;;;;;;;;;1.40;99.90;;;;;;8330226;28;19917;-66
2021/12/07 00:42:44;;;;;;;;;;;1.40;99.90;;;;;;8329261;28;20018;-65
2021/12/07 00:46:45;;;;;;;;;;;1.50;99.90;;;;;;8330239;28;19983;-66
2021/12/07 00:50:47;;;;;;;;;;;1.50;99.90;;;;;;8322372;28;20736;-65
2021/12/07 00:54:47;;;;;;;;;;;1.50;99.90;;;;;;8330009;28;19913;-65
2021/12/07 00:58:48;;;;;;;;;;;1.60;99.90;;;;;;8330027;28;19917;-66
2021/12/07 01:02:49;;;;;;;;;;;1.70;99.90;;;;;;8329941;28;19963;-65
2021/12/07 01:32:44;;;;;;;;;;;1.70;99.90;;;;;;8329159;28;20338;-65
2021/12/07 01:50:07;;;;;;;;;;;1.40;99.90;;;;;;8328468;28;19919;-66
2021/12/07 02:02:39;;;;;;;;;;;1.10;99.90;;;;;;8328750;28;19909;-65
2021/12/07 02:06:40;;;;;;;;;;;1.10;99.90;;;;;;8327935;28;20388;-65
2021/12/07 02:10:40;;;;;;;;;;;1.00;99.90;;;;;;8327633;28;19909;-65
2021/12/07 02:14:41;;;;;;;;;;;1.10;99.90;;;;;;8327181;28;19909;-67
2021/12/07 02:18:42;;;;;;;;;;;1.00;99.90;;;;;;8327478;28;19917;-65
2021/12/07 02:22:42;;;;;;;;;;;0.90;99.90;;;;;;8326827;28;19915;-64
2021/12/07 02:26:44;;;;;;;;;;;1.00;99.90;;;;;;8326856;28;19920;-66
2021/12/07 02:30:44;;;;;;;;;;;1.00;99.90;;;;;;8324965;28;19935;-64
2021/12/07 02:34:54;;;;;;;;;;;1.00;99.90;;;;;;8326798;28;19913;-66
2021/12/07 02:38:55;;;;;;;;;;;1.00;99.90;;;;;;8326058;28;19971;-65
2021/12/07 02:42:55;;;;;;;;;;;1.00;99.90;;;;;;8326479;28;19913;-64
2021/12/07 02:46:56;;;;;;;;;;;1.10;99.90;;;;;;8382285;22;19947;-63
2021/12/07 02:50:56;;;;;;;;;;;1.10;99.90;;;;;;8371411;28;19908;-63
2021/12/07 02:54:57;;;;;;;;;;;1.20;99.90;;;;;;8392259;28;20477;-63
2021/12/07 02:59:01;;;;;;;;;;;1.20;99.90;;;;;;8391873;28;19917;-63
2021/12/07 03:03:07;;;;;;;;;;;1.30;99.90;;;;;;8392074;28;19993;-63
2021/12/07 03:07:23;;;;;;;;;;;1.30;99.90;;;;;;8389330;28;19920;-62
2021/12/07 03:28:22;;;;;;;;;;;1.30;99.90;;;;;;8391739;28;20422;-62
2021/12/07 03:32:22;;;;;;;;;;;1.40;99.90;;;;;;8391585;28;19908;-63
2021/12/07 03:36:23;;;;;;;;;;;1.40;99.90;;;;;;8391393;28;19995;-63
2021/12/07 03:40:24;;;;;;;;;;;1.40;99.90;;;;;;8393182;28;19919;-63
2021/12/07 03:44:24;;;;;;;;;;;1.40;99.90;;;;;;8398764;28;19962;-63
2021/12/07 03:48:25;;;;;;;;;;;1.50;99.90;;;;;;8397922;28;19917;-62
2021/12/07 03:52:26;;;;;;;;;;;1.50;99.90;;;;;;8379501;28;19923;-63
2021/12/07 03:56:26;;;;;;;;;;;1.60;99.90;;;;;;8397627;28;19918;-63
2021/12/07 04:00:27;;;;;;;;;;;1.60;99.90;;;;;;8397337;28;19913;-62
2021/12/07 04:04:28;;;;;;;;;;;1.50;99.90;;;;;;8398210;28;19912;-62
2021/12/07 04:08:29;;;;;;;;;;;1.50;99.90;;;;;;8397455;28;19963;-63
2021/12/07 04:12:29;;;;;;;;;;;1.60;99.90;;;;;;8396754;28;20333;-63
2021/12/07 04:16:30;;;;;;;;;;;1.60;99.90;;;;;;8397097;28;19919;-63
2021/12/07 04:20:30;;;;;;;;;;;1.60;99.90;;;;;;8396566;28;19938;-62
2021/12/07 04:24:31;;;;;;;;;;;1.50;99.90;;;;;;8378661;28;20380;-63
2021/12/07 04:28:31;;;;;;;;;;;1.60;99.90;;;;;;8388214;28;20506;-62
2021/12/07 04:32:32;;;;;;;;;;;1.60;99.90;;;;;;8396715;28;19919;-62
2021/12/07 04:36:32;;;;;;;;;;;1.60;99.90;;;;;;8395880;28;20372;-64
2021/12/07 04:40:33;;;;;;;;;;;1.60;99.90;;;;;;8396388;28;19912;-63
2021/12/07 04:44:40;;;;;;;;;;;1.60;99.90;;;;;;8387769;28;20337;-63
2021/12/07 05:01:39;;;;;;;;;;;1.80;99.90;;;;;;8395400;28;19966;-62
2021/12/07 05:05:45;;;;;;;;;;;1.90;99.90;;;;;;8395453;28;19948;-62
2021/12/07 05:13:59;;;;;;;;;;;1.90;99.90;;;;;;8395186;28;19917;-62
2021/12/07 05:18:21;;;;;;;;;;;1.90;99.90;;;;;;8382848;28;19913;-62
2021/12/07 05:39:19;;;;;;;;;;;1.60;99.90;;;;;;8373304;28;19921;-62
2021/12/07 05:43:20;;;;;;;;;;;1.60;99.90;;;;;;8371561;28;19990;-63
2021/12/07 05:47:20;;;;;;;;;;;1.60;99.90;;;;;;8385731;28;19924;-62
2021/12/07 05:51:21;;;;;;;;;;;1.60;99.90;;;;;;8385823;28;19951;-64
2021/12/07 05:55:22;;;;;;;;;;;1.80;99.90;;;;;;8386228;28;19999;-63
2021/12/07 05:59:22;;;;;;;;;;;1.70;99.90;;;;;;8361107;28;19917;-63
2021/12/07 06:03:23;;;;;;;;;;;1.70;99.90;;;;;;8377578;28;20007;-63
2021/12/07 06:07:23;;;;;;;;;;;1.50;99.90;;;;;;8389399;28;19916;-63
2021/12/07 06:11:24;;;;;;;;;;;1.50;99.90;;;;;;8391644;28;20302;-63
2021/12/07 06:15:27;;;;;;;;;;;1.50;99.90;;;;;;8392815;28;19919;-62
2021/12/07 06:19:27;;;;;;;;;;;1.50;99.90;;;;;;8384350;28;19917;-62
2021/12/07 06:23:28;;;;;;;;;;;1.50;99.90;;;;;;8392559;28;19916;-62
2021/12/07 06:27:28;;;;;;;;;;;1.60;99.90;;;;;;8393426;28;19920;-62
2021/12/07 06:31:29;;;;;;;;;;;1.60;99.90;;;;;;8387491;28;20432;-62
2021/12/07 06:35:30;;;;;;;;;;;1.60;99.90;;;;;;8388673;28;19924;-63
2021/12/07 06:39:30;;;;;;;;;;;1.60;99.90;;;;;;8371321;28;19917;-62
2021/12/07 06:43:31;;;;;;;;;;;1.60;99.90;;;;;;8366767;28;19919;-63
2021/12/07 06:47:32;;;;;;;;;;;1.60;99.90;;;;;;8392211;28;19920;-63
2021/12/07 06:51:32;;;;;;;;;;;1.70;99.90;;;;;;8389724;28;19919;-62
2021/12/07 06:55:33;;;;;;;;;;;1.70;99.90;;;;;;8391829;28;19912;-63
2021/12/07 06:59:34;;;;;;;;;;;1.70;99.90;;;;;;8388529;28;20349;-63
2021/12/07 07:03:34;;;;;;;;;;;1.70;99.90;;;;;;8387783;28;19935;-63
2021/12/07 07:07:34;;;;;;;;;;;1.80;99.90;;;;;;8365896;28;19974;-63
2021/12/07 07:11:35;;;;;;;;;;;1.80;99.90;;;;;;8381143;28;19908;-62
2021/12/07 07:15:35;;;;;;;;;;;1.80;99.90;;;;;;8391922;28;20530;-61
2021/12/07 07:19:36;;;;;;;;;;;1.80;99.90;;;;;;8391440;28;20413;-62
2021/12/07 07:23:38;;;;;;;;;;;1.90;99.90;;;;;;8384981;28;19913;-61
2021/12/07 07:27:38;;;;;;;;;;;2.00;99.90;;;;;;8392183;28;19916;-62
2021/12/07 07:31:40;;;;;;;;;;;2.00;99.90;;;;;;8383605;28;19919;-62
2021/12/07 07:35:41;;;;;;;;;;;1.90;99.90;;;;;;8363071;28;19940;-62
2021/12/07 07:39:41;;;;;;;;;;;2.00;99.90;;;;;;8378477;28;19924;-61
2021/12/07 07:43:42;;;;;;;;;;;2.00;99.90;;;;;;8358126;28;19917;-62
2021/12/07 07:47:42;;;;;;;;;;;2.00;99.90;;;;;;8362053;28;20420;-62
2021/12/07 07:51:43;;;;;;;;;;;2.10;99.90;;;;;;8377635;28;19913;-62
2021/12/07 07:55:43;;;;;;;;;;;2.10;99.90;;;;;;8367286;28;19913;-62
2021/12/07 07:59:44;;;;;;;;;;;2.00;99.90;;;;;;8371924;28;19924;-61
2021/12/07 08:03:44;;;;;;;;;;;2.00;99.90;;;;;;8387537;28;19974;-61
2021/12/07 08:07:47;;;;;;;;;;;2.10;99.90;;;;;;8372492;28;20043;-61
2021/12/07 08:11:47;;;;;;;;;;;2.10;99.90;;;;;;8391056;28;19913;-62
2021/12/07 08:15:49;;;;;;;;;;;2.20;99.90;;;;;;8388673;28;19962;-61
2021/12/07 08:19:50;;;;;;;;;;;2.40;99.90;;;;;;8389824;28;19916;-61
2021/12/07 08:23:50;;;;;;;;;;;2.50;99.90;;;;;;8372637;28;19979;-61
2021/12/07 08:27:51;;;;;;;;;;;2.50;99.90;;;;;;8394637;28;19950;-61
2021/12/07 08:31:51;;;;;;;;;;;2.50;99.90;;;;;;8396285;28;20299;-61
2021/12/07 08:35:52;;;;;;;;;;;2.50;99.90;;;;;;8396296;28;19916;-61
2021/12/07 08:39:52;;;;;;;;;;;2.60;99.90;;;;;;8395784;28;19916;-61
2021/12/07 08:43:53;;;;;;;;;;;2.70;99.90;;;;;;8396247;28;19909;-61
2021/12/07 08:47:54;;;;;;;;;;;2.80;99.90;;;;;;8394538;22;19940;-64
2021/12/07 08:51:54;;;;;;;;;;;2.70;99.90;;;;;;8357861;28;19913;-64
2021/12/07 09:00:15;;;;;;;;;;;2.70;99.90;;;;;;8351566;28;19927;-63
2021/12/07 09:04:17;;;;;;;;;;;2.60;99.90;;;;;;8330122;28;19913;-64
2021/12/07 09:08:18;;;;;;;;;;;2.70;99.90;;;;;;8341803;28;20402;-64
2021/12/07 09:12:19;;;;;;;;;;;2.90;99.90;;;;;;8362573;28;19909;-64
2021/12/07 09:16:20;;;;;;;;;;;2.80;99.90;;;;;;8362398;28;19917;-64
2021/12/07 09:20:20;;;;;;;;;;;2.80;99.90;;;;;;8343023;28;19916;-64
2021/12/07 09:24:21;;;;;;;;;;;2.90;99.90;;;;;;8362413;28;19916;-64
2021/12/07 09:28:22;;;;;;;;;;;2.70;99.90;;;;;;8362274;28;19948;-64
2021/12/07 09:32:22;;;;;;;;;;;2.90;99.90;;;;;;8335847;28;19928;-64
2021/12/07 09:36:24;;;;;;;;;;;3.10;99.90;;;;;;8329148;28;19910;-64
2021/12/07 09:40:28;;;;;;;;;;;3.40;99.90;;;;;;8336620;28;19917;-65
2021/12/07 09:44:28;;;;;;;;;;;3.40;99.90;;;;;;8361365;28;19908;-65
2021/12/07 09:48:29;;;;;;;;;;;3.40;99.90;;;;;;8362077;28;20472;-64
2021/12/07 09:52:29;;;;;;;;;;;3.30;99.90;;;;;;8353505;28;19920;-65
2021/12/07 09:56:30;;;;;;;;;;;3.30;99.90;;;;;;8360023;28;19913;-64
2021/12/07 10:00:31;;;;;;;;;;;3.20;99.90;;;;;;8360460;28;19919;-64
2021/12/07 10:04:31;;;;;;;;;;;3.40;99.90;;;;;;8361593;28;19908;-64
2021/12/07 10:08:32;;;;;;;;;;;3.70;99.90;;;;;;8332487;28;19920;-65
2021/12/07 10:12:33;;;;;;;;;;;4.30;99.90;;;;;;8326303;28;19909;-64
2021/12/07 10:16:33;;;;;;;;;;;4.80;99.90;;;;;;8339473;28;19955;-64
2021/12/07 10:20:41;;;;;;;;;;;4.50;99.90;;;;;;8360257;28;19920;-65
2021/12/07 10:24:46;;;;;;;;;;;4.40;99.90;;;;;;8360640;28;19909;-65
2021/12/07 10:28:49;;;;;;;;;;;4.60;99.90;;;;;;8331134;28;19924;-64
2021/12/07 10:32:57;;;;;;;;;;;4.60;99.90;;;;;;8327354;28;19909;-64
2021/12/07 10:37:06;;;;;;;;;;;4.30;99.90;;;;;;8341612;28;20339;-65
2021/12/07 10:41:08;;;;;;;;;;;4.00;99.90;;;;;;8359978;28;20586;-65
2021/12/07 10:45:09;;;;;;;;;;;4.00;99.90;;;;;;8359500;28;20012;-63
2021/12/07 10:49:29;;;;;;;;;;;4.30;99.90;;;;;;8327810;28;20596;-65
2021/12/07 10:53:34;;;;;;;;;;;4.20;99.90;;;;;;8353525;28;19913;-64
2021/12/07 10:57:54;;;;;;;;;;;4.10;99.90;;;;;;8341327;28;19921;-65
2021/12/07 11:01:54;;;;;;;;;;;4.40;99.90;;;;;;8326348;28;19914;-64
2021/12/07 11:05:55;;;;;;;;;;;6.50;99.90;;;;;;8334370;28;20027;-64
2021/12/07 11:10:16;;;;;;;;;;;9.00;99.90;;;;;;8341980;28;19917;-65
2021/12/07 11:14:20;;;;;;;;;;;10.40;99.90;;;;;;8326517;28;19920;-65
2021/12/07 11:18:25;;;;;;;;;;;10.80;99.90;;;;;;8325944;28;19909;-65
2021/12/07 11:22:26;;;;;;;;;;;11.50;99.90;;;;;;8351573;28;19908;-65
2021/12/07 11:30:28;;;;;;;;;;;10.80;99.90;;;;;;8344379;28;19966;-65
2021/12/07 11:34:31;;;;;;;;;;;10.30;99.90;;;;;;8325835;28;19913;-65
2021/12/07 11:38:32;;;;;;;;;;;10.80;99.90;;;;;;8338790;28;19916;-64
2021/12/07 11:42:36;;;;;;;;;;;10.00;99.90;;;;;;8344738;28;20288;-65
2021/12/07 11:46:38;;;;;;;;;;;8.80;99.90;;;;;;8325496;28;20339;-65
2021/12/07 11:50:43;;;;;;;;;;;6.80;99.90;;;;;;8336393;28;19947;-65
2021/12/07 11:54:43;;;;;;;;;;;5.70;99.90;;;;;;8358701;28;19909;-65
2021/12/07 11:58:44;;;;;;;;;;;5.00;99.90;;;;;;8356942;28;19936;-64
2021/12/07 12:02:44;;;;;;;;;;;4.70;99.90;;;;;;8341787;28;19920;-64
2021/12/07 12:06:46;;;;;;;;;;;4.20;99.90;;;;;;8331884;28;19920;-65
2021/12/07 12:10:47;;;;;;;;;;;4.00;99.90;;;;;;8334477;28;19924;-64
2021/12/07 12:14:54;;;;;;;;;;;3.90;99.90;;;;;;8364431;28;20441;-65
2021/12/07 12:19:15;;;;;;;;;;;4.00;99.90;;;;;;8364270;28;20035;-65
2021/12/07 12:23:34;;;;;;;;;;;3.90;99.90;;;;;;8356105;28;19951;-65
2021/12/07 12:27:35;;;;;;;;;;;3.80;99.90;;;;;;8364147;28;19908;-64
2021/12/07 12:31:44;;;;;;;;;;;4.00;99.90;;;;;;8354011;28;19920;-65
2021/12/07 12:35:51;;;;;;;;;;;4.10;99.90;;;;;;8331085;28;19913;-65
2021/12/07 12:40:11;;;;;;;;;;;4.10;99.90;;;;;;8339251;28;20154;-65
2021/12/07 12:44:15;;;;;;;;;;;4.30;99.90;;;;;;8362055;28;19963;-65
2021/12/07 12:48:19;;;;;;;;;;;4.60;99.90;;;;;;8363486;28;19920;-65
2021/12/07 12:52:40;;;;;;;;;;;4.70;99.90;;;;;;8357941;28;20007;-66
2021/12/07 12:56:40;;;;;;;;;;;4.70;99.90;;;;;;8363341;28;19962;-65
2021/12/07 13:00:56;;;;;;;;;;;4.50;99.90;;;;;;8347586;28;20013;-65
2021/12/07 13:05:01;;;;;;;;;;;4.60;99.90;;;;;;8329830;28;19920;-66
2021/12/07 13:09:02;;;;;;;;;;;4.80;99.90;;;;;;8332238;28;20360;-65
2021/12/07 13:13:22;;;;;;;;;;;6.90;99.90;;;;;;8336449;28;19920;-64
2021/12/07 13:17:52;;;;;;;;;;;9.50;99.90;;;;;;8329870;28;19936;-65
2021/12/07 13:21:53;;;;;;;;;;;10.50;99.90;;;;;;8344971;28;19924;-65
2021/12/07 13:25:53;;;;;;;;;;;9.70;99.90;;;;;;8363461;28;20288;-66
2021/12/07 13:29:54;;;;;;;;;;;9.80;99.90;;;;;;8362600;28;19970;-66
2021/12/07 13:33:55;;;;;;;;;;;10.60;99.90;;;;;;8361179;28;19923;-65
2021/12/07 13:37:56;;;;;;;;;;;10.90;99.90;;;;;;8361753;28;19970;-66
2021/12/07 13:42:08;;;;;;;;;;;9.10;99.90;;;;;;8360477;28;19968;-65
2021/12/07 13:46:13;;;;;;;;;;;7.60;99.90;;;;;;8361730;28;19921;-65
2021/12/07 13:50:17;;;;;;;;;;;6.50;99.90;;;;;;8362167;28;19999;-66
2021/12/07 13:54:19;;;;;;;;;;;6.60;99.90;;;;;;8361625;28;19923;-64
2021/12/07 13:58:19;;;;;;;;;;;6.10;99.90;;;;;;8361690;28;20018;-64
2021/12/07 14:02:22;;;;;;;;;;;5.70;99.90;;;;;;8352182;28;19913;-65
2021/12/07 14:06:23;;;;;;;;;;;5.20;99.90;;;;;;8328838;28;19983;-66
2021/12/07 14:10:25;;;;;;;;;;;4.90;99.90;;;;;;8328015;28;20007;-64
2021/12/07 14:14:26;;;;;;;;;;;4.50;99.90;;;;;;8353967;28;20434;-65
2021/12/07 14:18:27;;;;;;;;;;;4.30;99.90;;;;;;8359909;28;19920;-65
2021/12/07 14:22:29;;;;;;;;;;;4.20;99.90;;;;;;8352203;28;19917;-65
2021/12/07 14:26:30;;;;;;;;;;;4.10;99.90;;;;;;8359999;28;19920;-65
2021/12/07 14:30:30;;;;;;;;;;;4.00;99.90;;;;;;8360709;28;19991;-65
2021/12/07 14:34:32;;;;;;;;;;;3.90;99.90;;;;;;8333872;28;19914;-66
2021/12/07 14:38:33;;;;;;;;;;;3.80;99.90;;;;;;8327221;28;19917;-66
2021/12/07 14:42:33;;;;;;;;;;;3.70;99.90;;;;;;8336611;28;19913;-66
2021/12/07 14:46:34;;;;;;;;;;;3.70;99.90;;;;;;8410786;22;20303;-61
2021/12/07 14:50:34;;;;;;;;;;;3.60;99.90;;;;;;8391653;28;20380;-62
2021/12/07 14:54:35;;;;;;;;;;;3.50;99.90;;;;;;8392386;28;19919;-61
2021/12/07 14:58:36;;;;;;;;;;;3.40;99.90;;;;;;8393016;28;19921;-62
2021/12/07 15:02:39;;;;;;;;;;;3.40;99.90;;;;;;8392280;28;20526;-62
2021/12/07 15:06:41;;;;;;;;;;;3.20;99.90;;;;;;8374816;28;19908;-62
2021/12/07 15:10:42;;;;;;;;;;;2.90;99.90;;;;;;8392668;28;20003;-62
2021/12/07 15:14:42;;;;;;;;;;;2.60;99.90;;;;;;8392511;28;20376;-62
2021/12/07 15:18:44;;;;;;;;;;;2.20;99.90;;;;;;8392472;28;19920;-62
2021/12/07 15:22:45;;;;;;;;;;;2.20;99.90;;;;;;8391699;28;19913;-62
2021/12/07 15:26:46;;;;;;;;;;;2.10;99.90;;;;;;8392521;28;19912;-62
2021/12/07 15:30:51;;;;;;;;;;;1.80;99.90;;;;;;8392029;28;19909;-61
2021/12/07 15:34:53;;;;;;;;;;;1.80;99.90;;;;;;8392784;28;20430;-62
2021/12/07 15:39:04;;;;;;;;;;;1.50;99.90;;;;;;8381065;28;19912;-62
2021/12/07 15:43:05;;;;;;;;;;;1.30;99.90;;;;;;8396557;28;20083;-62
2021/12/07 15:47:07;;;;;;;;;;;1.20;99.90;;;;;;8397782;28;19950;-64
2021/12/07 15:51:07;;;;;;;;;;;1.20;99.90;;;;;;8397597;28;19909;-62
2021/12/07 15:55:29;;;;;;;;;;;1.10;99.90;;;;;;8388118;27;19920;-62
2021/12/07 15:59:30;;;;;;;;;;;1.00;99.90;;;;;;8375243;28;19923;-61
2021/12/07 16:03:33;;;;;;;;;;;1.00;99.90;;;;;;8382790;28;19912;-61
2021/12/07 16:07:40;;;;;;;;;;;0.80;99.90;;;;;;8368021;28;20400;-61
2021/12/07 16:11:40;;;;;;;;;;;0.80;99.90;;;;;;8385724;28;19920;-62
2021/12/07 16:15:42;;;;;;;;;;;1.00;99.90;;;;;;8388295;28;20277;-61
2021/12/07 16:19:43;;;;;;;;;;;0.80;99.90;;;;;;8388527;28;20003;-61
2021/12/07 16:23:45;;;;;;;;;;;0.50;99.90;;;;;;8396559;28;19920;-61
2021/12/07 16:27:45;;;;;;;;;;;0.60;99.90;;;;;;8388333;28;20402;-61
2021/12/07 16:31:47;;;;;;;;;;;0.40;99.90;;;;;;8395033;28;19916;-61
2021/12/07 16:35:47;;;;;;;;;;;0.20;99.90;;;;;;8367907;28;20013;-62
2021/12/07 16:39:51;;;;;;;;;;;0.00;99.90;;;;;;8395073;28;19912;-62
2021/12/07 16:43:52;;;;;;;;;;;-0.10;99.90;;;;;;8392482;28;19920;-62
2021/12/07 16:47:54;;;;;;;;;;;0.00;99.90;;;;;;8378041;28;19920;-63
2021/12/07 16:51:55;;;;;;;;;;;0.00;99.90;;;;;;8380534;28;19913;-63
2021/12/07 16:55:55;;;;;;;;;;;-0.20;99.90;;;;;;8382438;28;19981;-63
2021/12/07 16:59:56;;;;;;;;;;;-0.30;99.90;;;;;;8387978;28;19920;-64
2021/12/07 17:03:56;;;;;;;;;;;-0.30;99.90;;;;;;8367701;28;19990;-63
2021/12/07 17:07:57;;;;;;;;;;;-0.50;99.90;;;;;;8373610;28;19999;-64
2021/12/07 17:11:58;;;;;;;;;;;-0.50;99.90;;;;;;8378550;28;19913;-62
2021/12/07 17:15:59;;;;;;;;;;;-0.60;99.90;;;;;;8381925;28;19913;-64
2021/12/07 17:19:59;;;;;;;;;;;-0.80;99.90;;;;;;8376377;28;19916;-64
2021/12/07 17:24:00;;;;;;;;;;;-0.90;99.90;;;;;;8376944;28;19912;-63
2021/12/07 17:28:00;;;;;;;;;;;-0.90;99.90;;;;;;8393851;28;19913;-65
2021/12/07 17:32:01;;;;;;;;;;;-0.90;99.90;;;;;;8394072;28;19912;-64
2021/12/07 17:36:02;;;;;;;;;;;-0.90;99.90;;;;;;8379533;28;19912;-63
2021/12/07 17:40:04;;;;;;;;;;;-1.00;99.90;;;;;;8375756;28;19916;-63
2021/12/07 17:44:05;;;;;;;;;;;-0.90;99.90;;;;;;8407047;28;19929;-63
2021/12/07 17:48:06;;;;;;;;;;;-1.10;99.90;;;;;;8379957;28;19916;-63
2021/12/07 17:52:07;;;;;;;;;;;-1.10;99.90;;;;;;8376114;28;19917;-63
2021/12/07 17:56:07;;;;;;;;;;;-0.80;99.90;;;;;;8371075;28;19912;-63
2021/12/07 18:00:12;;;;;;;;;;;-0.50;99.90;;;;;;8371151;28;20072;-64
2021/12/07 18:04:13;;;;;;;;;;;-0.50;99.90;;;;;;8375743;28;19923;-64
2021/12/07 18:08:14;;;;;;;;;;;-0.60;99.90;;;;;;8375398;28;19921;-63
2021/12/07 18:12:15;;;;;;;;;;;-0.60;99.90;;;;;;8359337;28;19924;-63
2021/12/07 18:16:15;;;;;;;;;;;-0.60;99.90;;;;;;8371270;28;19924;-63
2021/12/07 18:20:19;;;;;;;;;;;-0.50;99.90;;;;;;8354298;28;19928;-63
2021/12/07 18:24:19;;;;;;;;;;;-0.70;99.90;;;;;;8350726;28;20372;-63
2021/12/07 18:28:21;;;;;;;;;;;-0.60;99.90;;;;;;8373903;28;19921;-63
2021/12/07 18:32:21;;;;;;;;;;;-0.80;99.90;;;;;;8368493;28;19924;-63
2021/12/07 18:36:22;;;;;;;;;;;-0.70;99.90;;;;;;8364363;28;20010;-63
2021/12/07 18:40:23;;;;;;;;;;;-0.80;99.90;;;;;;8382899;28;19924;-63
2021/12/07 18:44:24;;;;;;;;;;;-0.60;99.90;;;;;;8382496;28;19947;-62
2021/12/07 18:48:26;;;;;;;;;;;-0.60;99.90;;;;;;8382273;28;19928;-63
2021/12/07 18:52:26;;;;;;;;;;;-0.60;99.90;;;;;;8381581;28;19920;-63
2021/12/07 18:56:27;;;;;;;;;;;-0.50;99.90;;;;;;8372473;28;20343;-62
2021/12/07 19:00:28;;;;;;;;;;;-0.50;99.90;;;;;;8371000;28;19964;-63
2021/12/07 19:04:29;;;;;;;;;;;-0.60;99.90;;;;;;8365011;28;19973;-63
2021/12/07 19:08:29;;;;;;;;;;;-0.80;99.90;;;;;;8370741;28;19917;-64
2021/12/07 19:12:30;;;;;;;;;;;-0.90;99.90;;;;;;8370045;28;19917;-62
2021/12/07 19:16:30;;;;;;;;;;;-0.80;99.90;;;;;;8371443;28;19917;-63
2021/12/07 19:20:31;;;;;;;;;;;-0.80;99.90;;;;;;8363306;28;20062;-63
2021/12/07 19:24:32;;;;;;;;;;;-0.80;99.90;;;;;;8375482;28;19913;-63
2021/12/07 19:28:33;;;;;;;;;;;-0.70;99.90;;;;;;8361504;28;19919;-63
2021/12/07 19:32:35;;;;;;;;;;;-0.90;99.90;;;;;;8355951;28;20305;-63
2021/12/07 19:36:36;;;;;;;;;;;-1.10;99.90;;;;;;8362783;28;19958;-63
2021/12/07 19:40:37;;;;;;;;;;;-1.10;99.90;;;;;;8370227;28;19927;-63
2021/12/07 19:44:37;;;;;;;;;;;-1.20;99.90;;;;;;8379956;28;19912;-62
2021/12/07 19:48:38;;;;;;;;;;;-1.10;99.90;;;;;;8386867;28;19916;-62
2021/12/07 19:52:38;;;;;;;;;;;-1.00;99.90;;;;;;8376271;28;20387;-63
2021/12/07 19:56:41;;;;;;;;;;;-1.30;99.90;;;;;;8368888;28;19920;-62
2021/12/07 20:00:44;;;;;;;;;;;-1.50;99.90;;;;;;8372558;28;19916;-63
2021/12/07 20:04:46;;;;;;;;;;;-1.70;99.90;;;;;;8370191;28;19917;-63
2021/12/07 20:08:48;;;;;;;;;;;-1.70;99.90;;;;;;8375601;28;20636;-64
2021/12/07 20:12:49;;;;;;;;;;;-1.60;99.90;;;;;;8374357;28;20459;-62
2021/12/07 20:16:50;;;;;;;;;;;-1.60;99.90;;;;;;8375037;28;20376;-64
2021/12/07 20:20:53;;;;;;;;;;;-1.50;99.90;;;;;;8376613;28;19924;-63
2021/12/07 20:24:54;;;;;;;;;;;-1.50;99.90;;;;;;8374954;28;19916;-62
2021/12/07 20:28:55;;;;;;;;;;;-1.40;99.90;;;;;;8376665;28;19939;-63
2021/12/07 20:32:55;;;;;;;;;;;-1.20;99.90;;;;;;8372724;28;19959;-62
2021/12/07 20:36:58;;;;;;;;;;;-1.30;99.90;;;;;;8377414;28;20137;-63
2021/12/07 20:40:59;;;;;;;;;;;-1.50;99.90;;;;;;8379369;28;19991;-63
2021/12/07 20:45:00;;;;;;;;;;;-1.50;99.90;;;;;;8384551;28;19963;-63
2021/12/07 20:49:00;;;;;;;;;;;-1.50;99.90;;;;;;8392091;22;19925;-63
2021/12/07 20:53:01;;;;;;;;;;;-1.40;99.90;;;;;;8366622;28;19921;-64
2021/12/07 20:57:01;;;;;;;;;;;-1.50;99.90;;;;;;8364664;28;19920;-62
2021/12/07 21:01:04;;;;;;;;;;;-1.50;99.90;;;;;;8352777;28;19947;-63
2021/12/07 21:05:06;;;;;;;;;;;-1.40;99.90;;;;;;8354983;28;20285;-63
2021/12/07 21:09:07;;;;;;;;;;;-1.40;99.90;;;;;;8340603;28;19919;-64
2021/12/07 21:13:07;;;;;;;;;;;-1.40;99.90;;;;;;8358099;28;19912;-63
2021/12/07 21:17:09;;;;;;;;;;;-1.30;99.90;;;;;;8358304;28;19917;-63
2021/12/07 21:21:10;;;;;;;;;;;-1.50;99.90;;;;;;8357041;28;19917;-63
2021/12/07 21:25:11;;;;;;;;;;;-1.50;99.90;;;;;;8341985;28;20399;-63
2021/12/07 21:29:11;;;;;;;;;;;-1.40;99.90;;;;;;8378550;28;19909;-64
2021/12/07 21:33:12;;;;;;;;;;;-1.30;99.90;;;;;;8376432;28;19961;-63
2021/12/07 21:37:13;;;;;;;;;;;-1.10;99.90;;;;;;8377710;28;19943;-63
2021/12/07 21:41:13;;;;;;;;;;;-1.20;99.90;;;;;;8377484;28;20412;-64
2021/12/07 21:45:14;;;;;;;;;;;-1.10;99.90;;;;;;8377474;28;19908;-63
2021/12/07 21:49:15;;;;;;;;;;;-1.10;99.90;;;;;;8375983;28;19948;-63
2021/12/07 21:53:16;;;;;;;;;;;-1.20;99.90;;;;;;8372352;28;19970;-63
2021/12/07 21:57:17;;;;;;;;;;;-1.10;99.90;;;;;;8363219;28;19909;-62
2021/12/07 22:01:17;;;;;;;;;;;-0.80;99.90;;;;;;8359323;28;19966;-63
2021/12/07 22:05:18;;;;;;;;;;;-0.80;99.90;;;;;;8348669;28;20377;-64
2021/12/07 22:09:18;;;;;;;;;;;-0.80;99.90;;;;;;8351507;28;20394;-64
2021/12/07 22:13:20;;;;;;;;;;;-0.70;99.90;;;;;;8329667;28;20012;-64
2021/12/07 22:17:20;;;;;;;;;;;-0.80;99.90;;;;;;8343778;28;19924;-62
2021/12/07 22:21:21;;;;;;;;;;;-0.80;99.90;;;;;;8325646;28;20004;-63
2021/12/07 22:25:21;;;;;;;;;;;-0.70;99.90;;;;;;8360117;28;19913;-64
2021/12/07 22:29:22;;;;;;;;;;;-0.70;99.90;;;;;;8347050;28;19916;-64
2021/12/07 22:33:23;;;;;;;;;;;-0.80;99.90;;;;;;8327138;28;19913;-63
2021/12/07 22:37:24;;;;;;;;;;;-0.90;99.90;;;;;;8309761;28;19909;-63
2021/12/07 22:41:25;;;;;;;;;;;-0.70;99.90;;;;;;8341187;28;19927;-64
2021/12/07 22:45:25;;;;;;;;;;;-0.80;99.90;;;;;;8359129;28;20029;-64
2021/12/07 22:49:26;;;;;;;;;;;-0.90;99.90;;;;;;8359669;28;19925;-64
2021/12/07 22:53:26;;;;;;;;;;;-0.90;99.90;;;;;;8352719;28;20369;-63
2021/12/07 22:57:28;;;;;;;;;;;-1.00;99.90;;;;;;8360104;28;19962;-64
2021/12/07 23:01:28;;;;;;;;;;;-1.20;99.90;;;;;;8359398;28;19912;-64
2021/12/07 23:05:29;;;;;;;;;;;-1.30;99.90;;;;;;8340441;28;20475;-63
2021/12/07 23:09:30;;;;;;;;;;;-1.30;99.90;;;;;;8326294;28;19956;-64
2021/12/07 23:13:31;;;;;;;;;;;-1.50;99.90;;;;;;8326276;28;19916;-64
2021/12/07 23:17:31;;;;;;;;;;;-1.60;99.90;;;;;;8343123;28;19966;-64
2021/12/07 23:21:32;;;;;;;;;;;-1.60;99.90;;;;;;8358518;28;19959;-64
2021/12/07 23:25:34;;;;;;;;;;;-1.60;99.90;;;;;;8358466;28;19924;-64
2021/12/07 23:29:34;;;;;;;;;;;-1.60;99.90;;;;;;8339347;28;19921;-64
2021/12/07 23:33:36;;;;;;;;;;;-1.60;99.90;;;;;;8361371;28;20346;-64
2021/12/07 23:37:37;;;;;;;;;;;-1.20;99.90;;;;;;8351047;28;19913;-64
2021/12/07 23:41:37;;;;;;;;;;;-1.20;99.90;;;;;;8326731;28;19917;-64
2021/12/07 23:45:38;;;;;;;;;;;-1.30;99.90;;;;;;8325988;28;19924;-64
2021/12/07 23:49:39;;;;;;;;;;;-1.50;99.90;;;;;;8328464;28;19916;-64
2021/12/07 23:53:39;;;;;;;;;;;-1.50;99.90;;;;;;8333999;28;19948;-64
2021/12/07 23:57:40;;;;;;;;;;;-1.60;99.90;;;;;;8362309;28;20003;-64
